Time;durP1;ratioP1;P1;durP2;ratioP2;P2;SDS_P1;SDS_P2;PMS_P1;PMS_P2;Temp;Humidity;BMP_temperature;BMP_pressure;BME280_temperature;BME280_humidity;BME280_pressure;Samples;Min_cycle;Max_cycle;Signal;HPM_P1;HPM_P2
2021/07/20 00:00:58;;;;;;;25.83;20.45;;;19.20;79.80;;;;;;5075359;28;20033;-71
2021/07/20 00:03:23;;;;;;;28.92;21.77;;;19.10;79.90;;;;;;5084007;28;20041;-71
2021/07/20 00:05:49;;;;;;;24.10;19.58;;;19.10;80.30;;;;;;5073870;28;20040;-72
2021/07/20 00:08:15;;;;;;;25.92;21.38;;;19.10;80.40;;;;;;5083934;28;20043;-72
2021/07/20 00:10:48;;;;;;;27.92;22.85;;;19.10;80.10;;;;;;5079324;28;20077;-72
2021/07/20 00:13:14;;;;;;;24.88;21.60;;;19.00;80.30;;;;;;5084127;28;20349;-73
2021/07/20 00:15:40;;;;;;;25.52;20.02;;;18.90;80.60;;;;;;5085567;28;20039;-72
2021/07/20 00:18:09;;;;;;;29.40;21.77;;;18.80;80.80;;;;;;5074070;28;20487;-72
2021/07/20 00:20:35;;;;;;;28.67;21.80;;;18.80;81.00;;;;;;5077435;28;20036;-73
2021/07/20 00:23:01;;;;;;;25.55;21.10;;;18.80;81.20;;;;;;5072852;28;20048;-75
2021/07/20 00:25:27;;;;;;;24.98;20.83;;;18.70;81.30;;;;;;5073431;28;20105;-73
2021/07/20 00:27:53;;;;;;;25.17;19.95;;;18.70;81.60;;;;;;5078745;28;20056;-72
2021/07/20 00:30:18;;;;;;;21.88;18.92;;;18.70;81.50;;;;;;5074369;28;20028;-71
2021/07/20 00:32:44;;;;;;;25.42;21.17;;;18.70;81.30;;;;;;5080708;28;20067;-73
2021/07/20 00:35:11;;;;;;;25.77;20.92;;;18.80;81.30;;;;;;5082501;28;20115;-72
2021/07/20 00:37:38;;;;;;;27.08;20.63;;;18.80;81.20;;;;;;5083796;28;20104;-72
2021/07/20 00:40:06;;;;;;;23.95;19.85;;;18.80;81.10;;;;;;5080269;28;20047;-76
2021/07/20 00:42:32;;;;;;;27.20;21.25;;;18.80;81.10;;;;;;5078583;28;20475;-73
2021/07/20 00:45:00;;;;;;;25.83;21.08;;;18.80;81.10;;;;;;5081412;28;20044;-75
2021/07/20 00:47:26;;;;;;;26.10;21.10;;;18.70;81.10;;;;;;5081308;28;20487;-73
2021/07/20 00:49:52;;;;;;;23.30;19.15;;;18.60;81.20;;;;;;5076625;28;20047;-75
2021/07/20 00:52:18;;;;;;;24.50;19.52;;;18.60;81.60;;;;;;5081492;28;20042;-71
2021/07/20 00:54:44;;;;;;;29.02;21.30;;;18.60;81.70;;;;;;5076219;28;20120;-71
2021/07/20 00:57:10;;;;;;;23.83;20.35;;;18.60;81.60;;;;;;5077121;28;20027;-71
2021/07/20 00:59:37;;;;;;;26.50;21.10;;;18.50;81.90;;;;;;5075910;28;20156;-73
2021/07/20 01:02:03;;;;;;;23.25;19.60;;;18.50;81.80;;;;;;5073567;28;20111;-72
2021/07/20 01:04:29;;;;;;;25.45;20.50;;;18.50;81.80;;;;;;5077732;28;20484;-73
2021/07/20 01:06:57;;;;;;;25.48;19.95;;;18.50;81.40;;;;;;5083861;28;20051;-72
2021/07/20 01:09:23;;;;;;;27.80;21.52;;;18.50;81.40;;;;;;5072738;28;20036;-75
2021/07/20 01:11:50;;;;;;;21.60;18.75;;;18.50;81.30;;;;;;5077799;28;20113;-72
2021/07/20 01:14:16;;;;;;;21.63;18.77;;;18.50;81.40;;;;;;5071638;28;20048;-73
2021/07/20 01:16:43;;;;;;;24.60;19.70;;;18.40;81.30;;;;;;5080925;28;20206;-72
2021/07/20 01:19:14;;;;;;;26.92;21.08;;;18.50;80.90;;;;;;5071265;28;20123;-73
2021/07/20 01:21:40;;;;;;;25.92;20.77;;;18.40;81.00;;;;;;5075258;28;20036;-71
2021/07/20 01:24:08;;;;;;;25.17;21.80;;;18.40;81.10;;;;;;5078532;28;20093;-73
2021/07/20 01:26:34;;;;;;;24.65;19.60;;;18.30;81.30;;;;;;5078177;28;20045;-72
2021/07/20 01:29:03;;;;;;;22.63;18.65;;;18.20;81.60;;;;;;5074144;28;20364;-73
2021/07/20 01:31:33;;;;;;;26.63;20.10;;;18.20;81.60;;;;;;5082189;28;20109;-71
2021/07/20 01:34:00;;;;;;;24.63;19.33;;;18.20;81.70;;;;;;5081915;28;20039;-71
2021/07/20 01:36:28;;;;;;;25.10;20.33;;;18.20;81.80;;;;;;5078188;28;20074;-71
2021/07/20 01:38:55;;;;;;;23.50;19.48;;;18.10;81.70;;;;;;5074753;28;20033;-72
2021/07/20 01:41:23;;;;;;;24.52;18.83;;;18.10;81.70;;;;;;5070934;28;20067;-75
2021/07/20 01:43:55;;;;;;;25.35;19.52;;;18.10;81.70;;;;;;5075447;28;20054;-72
2021/07/20 01:46:24;;;;;;;24.95;20.48;;;18.10;81.50;;;;;;5078027;28;20036;-69
2021/07/20 01:48:51;;;;;;;24.77;19.63;;;18.10;81.50;;;;;;5074995;28;20090;-70
2021/07/20 01:51:17;;;;;;;24.23;19.65;;;18.10;81.60;;;;;;5080041;28;20028;-73
2021/07/20 01:53:43;;;;;;;27.75;19.02;;;18.00;81.60;;;;;;5077304;28;20032;-75
2021/07/20 01:56:10;;;;;;;26.40;18.92;;;18.00;81.20;;;;;;5074631;28;20473;-71
2021/07/20 01:58:41;;;;;;;23.67;18.10;;;18.00;80.90;;;;;;5076470;28;20481;-71
2021/07/20 02:01:10;;;;;;;22.88;17.48;;;17.90;80.70;;;;;;5075598;28;20029;-71
2021/07/20 02:08:54;;;;;;;24.73;18.58;;;17.90;80.40;;;;;;5077556;28;20444;-71
2021/07/20 02:11:26;;;;;;;21.92;17.70;;;17.90;79.90;;;;;;5082293;28;20040;-71
2021/07/20 02:14:01;;;;;;;28.08;19.50;;;17.80;80.10;;;;;;5075362;28;20028;-71
2021/07/20 02:16:30;;;;;;;24.70;17.38;;;17.80;80.10;;;;;;5080308;28;20078;-72
2021/07/20 02:19:12;;;;;;;24.42;18.23;;;17.80;79.80;;;;;;5077892;28;20066;-70
2021/07/20 02:21:50;;;;;;;21.63;18.27;;;17.80;80.00;;;;;;5072275;28;20097;-71
2021/07/20 02:24:20;;;;;;;23.58;18.35;;;17.80;80.00;;;;;;5069333;28;20101;-70
2021/07/20 02:26:47;;;;;;;27.10;19.67;;;17.70;79.90;;;;;;5076245;28;20471;-70
2021/07/20 02:29:15;;;;;;;27.83;20.42;;;17.80;80.00;;;;;;5084974;28;20032;-70
2021/07/20 02:31:41;;;;;;;25.00;19.27;;;17.70;79.70;;;;;;5079307;28;20106;-71
2021/07/20 02:34:08;;;;;;;28.85;18.63;;;17.60;80.10;;;;;;5074845;28;20036;-71
2021/07/20 02:36:37;;;;;;;24.38;18.27;;;17.60;80.40;;;;;;5078193;28;20532;-74
2021/07/20 02:39:06;;;;;;;26.63;19.13;;;17.60;80.80;;;;;;5071712;28;20130;-71
2021/07/20 02:41:33;;;;;;;23.90;18.40;;;17.50;80.90;;;;;;5077430;28;20438;-70
2021/07/20 02:43:59;;;;;;;23.60;18.70;;;17.50;81.20;;;;;;5077470;28;20040;-70
2021/07/20 02:46:25;;;;;;;24.17;18.25;;;17.40;81.40;;;;;;5079301;28;20036;-72
2021/07/20 02:48:52;;;;;;;24.55;18.25;;;17.40;81.30;;;;;;5074204;28;20491;-70
2021/07/20 02:51:19;;;;;;;27.75;18.73;;;17.40;81.50;;;;;;5080628;28;20478;-71
2021/07/20 02:53:48;;;;;;;24.10;18.95;;;17.30;81.70;;;;;;5076721;28;20046;-72
2021/07/20 02:56:14;;;;;;;23.65;18.48;;;17.30;81.90;;;;;;5074897;28;20036;-71
2021/07/20 02:58:43;;;;;;;23.83;18.05;;;17.20;82.10;;;;;;5077034;28;20032;-70
2021/07/20 03:01:10;;;;;;;23.90;19.08;;;17.20;82.00;;;;;;5073989;28;20036;-72
2021/07/20 03:03:36;;;;;;;24.90;18.25;;;17.20;81.60;;;;;;5075750;28;20043;-71
2021/07/20 03:06:04;;;;;;;26.55;18.40;;;17.20;81.40;;;;;;5072391;28;20101;-71
2021/07/20 03:08:33;;;;;;;24.02;17.98;;;17.10;81.40;;;;;;5068678;28;20032;-75
2021/07/20 03:11:02;;;;;;;24.33;17.98;;;17.10;81.50;;;;;;5078667;28;20157;-71
2021/07/20 03:13:30;;;;;;;25.42;18.50;;;17.00;81.50;;;;;;5070212;28;20599;-72
2021/07/20 03:15:58;;;;;;;23.98;18.40;;;17.00;81.80;;;;;;5072303;28;20029;-72
2021/07/20 03:18:28;;;;;;;24.55;17.48;;;17.00;81.90;;;;;;5076419;28;20082;-71
2021/07/20 03:20:57;;;;;;;24.08;18.55;;;16.90;81.90;;;;;;5079685;28;20064;-72
2021/07/20 03:23:24;;;;;;;23.60;18.40;;;17.00;81.90;;;;;;5078202;28;20044;-75
2021/07/20 03:25:51;;;;;;;23.55;17.80;;;16.90;81.70;;;;;;5097892;28;20033;-71
2021/07/20 03:28:17;;;;;;;24.13;17.65;;;16.80;81.80;;;;;;5080698;28;20483;-70
2021/07/20 03:30:44;;;;;;;24.73;18.08;;;16.90;82.00;;;;;;5079041;28;20508;-70
2021/07/20 03:33:10;;;;;;;27.83;18.42;;;16.90;81.60;;;;;;5082993;28;20523;-71
2021/07/20 03:35:38;;;;;;;26.13;19.13;;;16.90;81.60;;;;;;5076499;28;20036;-70
2021/07/20 03:38:04;;;;;;;24.17;16.77;;;16.80;81.40;;;;;;5080795;28;20047;-71
2021/07/20 03:40:31;;;;;;;22.02;17.88;;;16.80;81.80;;;;;;5082979;28;20132;-71
2021/07/20 03:42:58;;;;;;;25.30;17.58;;;16.80;81.60;;;;;;5087930;28;20040;-72
2021/07/20 03:45:24;;;;;;;24.33;17.92;;;16.80;81.50;;;;;;5083884;28;20053;-76
2021/07/20 03:47:50;;;;;;;25.38;18.15;;;16.80;81.40;;;;;;5086322;28;20032;-73
2021/07/20 03:50:17;;;;;;;30.75;19.48;;;16.70;81.40;;;;;;5072976;28;20032;-71
2021/07/20 03:52:44;;;;;;;24.02;17.45;;;16.70;81.50;;;;;;5071536;28;20059;-70
2021/07/20 03:55:10;;;;;;;27.38;18.45;;;16.60;81.80;;;;;;5075719;28;20052;-71
2021/07/20 03:57:37;;;;;;;29.70;20.13;;;16.60;82.00;;;;;;5076142;28;20491;-70
2021/07/20 04:00:07;;;;;;;28.10;18.92;;;16.60;81.60;;;;;;5073619;28;20031;-71
2021/07/20 04:02:44;;;;;;;25.80;17.02;;;16.60;81.40;;;;;;5080262;28;20056;-71
2021/07/20 04:05:12;;;;;;;25.75;18.65;;;16.60;81.90;;;;;;5076811;28;20123;-72
2021/07/20 04:07:40;;;;;;;24.42;17.77;;;16.60;81.90;;;;;;5086417;28;20412;-70
2021/07/20 04:10:07;;;;;;;25.88;17.95;;;16.60;81.50;;;;;;5076211;28;20025;-71
2021/07/20 04:12:35;;;;;;;27.58;18.15;;;16.60;81.80;;;;;;5069376;28;20032;-71
2021/07/20 04:15:01;;;;;;;25.77;18.02;;;16.60;81.70;;;;;;5074530;28;20041;-70
2021/07/20 04:17:28;;;;;;;26.63;18.05;;;16.60;81.90;;;;;;5081567;28;20458;-70
2021/07/20 04:19:55;;;;;;;29.52;18.55;;;16.60;81.70;;;;;;5074487;28;20032;-70
2021/07/20 04:22:20;;;;;;;28.63;17.88;;;16.60;81.70;;;;;;5078741;28;20122;-73
2021/07/20 04:24:47;;;;;;;25.52;17.48;;;16.70;81.50;;;;;;5079263;28;20470;-72
2021/07/20 04:27:15;;;;;;;24.15;16.90;;;16.70;81.30;;;;;;5077676;28;20044;-71
2021/07/20 04:29:42;;;;;;;24.50;18.63;;;16.70;81.10;;;;;;5076711;28;20421;-72
2021/07/20 04:32:09;;;;;;;27.33;18.63;;;16.80;80.90;;;;;;5078896;28;20051;-71
2021/07/20 04:34:38;;;;;;;28.75;19.17;;;16.70;80.80;;;;;;5076747;28;20048;-70
2021/07/20 04:37:08;;;;;;;24.77;17.48;;;16.60;81.00;;;;;;5075512;28;20033;-71
2021/07/20 04:39:35;;;;;;;24.45;17.67;;;16.60;81.40;;;;;;5080558;28;20036;-71
2021/07/20 04:42:06;;;;;;;25.02;18.35;;;16.70;81.40;;;;;;5081920;28;20036;-70
2021/07/20 04:44:31;;;;;;;26.83;18.27;;;16.80;80.90;;;;;;5074105;28;20040;-71
2021/07/20 04:46:58;;;;;;;27.13;17.10;;;16.90;80.60;;;;;;5073673;28;20500;-70
2021/07/20 04:49:24;;;;;;;29.20;17.50;;;17.00;80.10;;;;;;5076549;28;20032;-71
2021/07/20 04:51:50;;;;;;;26.35;17.63;;;17.00;79.90;;;;;;5076842;28;20051;-70
2021/07/20 04:54:16;;;;;;;27.85;18.33;;;17.00;80.00;;;;;;5069204;28;20051;-70
2021/07/20 04:56:43;;;;;;;26.05;17.70;;;17.00;79.30;;;;;;5084009;28;20048;-70
2021/07/20 04:59:11;;;;;;;28.17;18.85;;;17.10;79.60;;;;;;5082402;28;20035;-71
2021/07/20 05:01:39;;;;;;;30.02;18.30;;;17.10;79.30;;;;;;5070722;28;20028;-71
2021/07/20 05:04:06;;;;;;;26.38;17.92;;;17.10;79.50;;;;;;5076911;28;20040;-72
2021/07/20 05:06:33;;;;;;;27.70;19.08;;;17.30;79.10;;;;;;5095572;28;20508;-70
2021/07/20 05:09:00;;;;;;;25.17;18.02;;;17.30;78.80;;;;;;5083117;28;20039;-72
2021/07/20 05:11:30;;;;;;;26.95;18.48;;;17.30;78.70;;;;;;5055737;28;20409;-72
2021/07/20 05:13:56;;;;;;;25.30;17.27;;;17.30;79.10;;;;;;5076056;28;20032;-70
2021/07/20 05:16:22;;;;;;;23.98;16.75;;;17.40;79.00;;;;;;5067157;28;20046;-70
2021/07/20 05:18:48;;;;;;;25.52;18.08;;;17.50;78.80;;;;;;5076310;28;20387;-70
2021/07/20 05:21:16;;;;;;;26.48;17.63;;;17.60;77.80;;;;;;5081755;28;20064;-71
2021/07/20 05:23:43;;;;;;;23.63;17.35;;;17.70;78.00;;;;;;5076456;28;20040;-73
2021/07/20 05:26:12;;;;;;;23.88;16.60;;;17.80;77.60;;;;;;5068183;28;20131;-73
2021/07/20 05:28:38;;;;;;;27.48;17.67;;;18.00;77.90;;;;;;5078383;28;20135;-71
2021/07/20 05:31:06;;;;;;;22.27;16.58;;;18.90;75.60;;;;;;5079874;28;20128;-72
2021/07/20 05:33:33;;;;;;;24.20;17.13;;;20.10;71.00;;;;;;5080334;28;20088;-71
2021/07/20 05:36:01;;;;;;;23.98;16.45;;;21.00;67.20;;;;;;5078530;28;20131;-71
2021/07/20 05:38:29;;;;;;;22.33;15.80;;;21.80;64.40;;;;;;5079347;28;20402;-74
2021/07/20 05:40:57;;;;;;;20.13;14.90;;;22.70;61.80;;;;;;5082615;28;20028;-72
2021/07/20 05:43:25;;;;;;;22.55;14.85;;;23.20;59.80;;;;;;5080210;28;20467;-73
2021/07/20 05:45:57;;;;;;;22.52;15.93;;;23.80;57.60;;;;;;5078422;28;20482;-71
2021/07/20 05:48:24;;;;;;;22.15;15.23;;;24.00;56.80;;;;;;5079900;28;20040;-76
2021/07/20 05:50:54;;;;;;;25.15;15.48;;;23.90;56.80;;;;;;5081434;28;20127;-70
2021/07/20 05:53:24;;;;;;;22.63;15.70;;;24.50;55.30;;;;;;5077219;28;20036;-72
2021/07/20 05:55:52;;;;;;;20.45;14.43;;;24.50;54.50;;;;;;5072340;28;20032;-72
2021/07/20 05:58:20;;;;;;;23.08;15.23;;;24.10;54.90;;;;;;5075522;28;20138;-71
2021/07/20 06:00:48;;;;;;;25.52;16.73;;;24.10;55.40;;;;;;5077604;28;20539;-74
2021/07/20 06:03:19;;;;;;;22.02;16.60;;;23.60;55.70;;;;;;5076331;28;20433;-73
2021/07/20 06:05:49;;;;;;;22.60;16.67;;;22.90;58.00;;;;;;5078061;28;20543;-75
2021/07/20 06:08:16;;;;;;;23.48;16.77;;;21.90;61.00;;;;;;5078856;28;20564;-70
2021/07/20 06:10:50;;;;;;;23.00;16.20;;;21.30;63.50;;;;;;5079953;28;20181;-71
2021/07/20 06:13:16;;;;;;;26.87;17.37;;;20.90;65.80;;;;;;5080748;28;20403;-71
2021/07/20 06:15:47;;;;;;;23.15;16.83;;;20.70;65.60;;;;;;5079494;28;20028;-72
2021/07/20 06:18:13;;;;;;;22.65;16.60;;;20.50;67.20;;;;;;5081268;28;20050;-71
2021/07/20 06:20:46;;;;;;;20.63;15.88;;;20.60;68.20;;;;;;5078069;28;20024;-71
2021/07/20 06:23:13;;;;;;;20.83;15.97;;;20.60;67.00;;;;;;5078471;28;20044;-70
2021/07/20 06:25:41;;;;;;;23.50;17.10;;;20.80;66.40;;;;;;5076161;28;20434;-71
2021/07/20 06:28:07;;;;;;;22.70;15.98;;;20.90;65.90;;;;;;5079782;28;20044;-72
2021/07/20 06:30:34;;;;;;;21.38;15.98;;;20.80;66.10;;;;;;5078707;28;20114;-70
2021/07/20 06:33:00;;;;;;;24.35;17.40;;;20.90;66.20;;;;;;5074243;28;20032;-71
2021/07/20 06:35:26;;;;;;;24.02;15.27;;;20.70;66.50;;;;;;5080722;28;20066;-71
2021/07/20 06:37:52;;;;;;;22.98;16.38;;;20.90;66.30;;;;;;5082151;28;20468;-70
2021/07/20 06:40:19;;;;;;;24.05;16.05;;;21.00;64.80;;;;;;5079823;28;20047;-71
2021/07/20 06:42:47;;;;;;;23.45;16.48;;;21.10;65.70;;;;;;5077056;28;20081;-70
2021/07/20 06:45:14;;;;;;;23.38;15.88;;;21.00;64.90;;;;;;5073066;28;20127;-70
2021/07/20 06:47:41;;;;;;;21.75;15.93;;;21.10;65.00;;;;;;5080187;28;20486;-71
2021/07/20 06:50:09;;;;;;;22.50;16.38;;;21.00;65.50;;;;;;5074810;28;20028;-70
2021/07/20 06:52:35;;;;;;;20.95;14.93;;;21.10;65.00;;;;;;5078391;28;20383;-71
2021/07/20 06:55:01;;;;;;;21.45;16.00;;;21.30;64.50;;;;;;5076609;28;20032;-69
2021/07/20 06:57:28;;;;;;;20.45;14.98;;;21.40;64.90;;;;;;5080222;28;20371;-68
2021/07/20 06:59:57;;;;;;;23.75;15.98;;;21.50;63.70;;;;;;5076099;28;20524;-68
2021/07/20 07:02:25;;;;;;;21.90;15.77;;;21.60;63.70;;;;;;5078724;28;20055;-70
2021/07/20 07:05:04;;;;;;;23.33;16.30;;;21.60;64.10;;;;;;5082936;28;20042;-68
2021/07/20 07:07:31;;;;;;;22.27;15.10;;;21.80;64.10;;;;;;5079556;28;20039;-68
2021/07/20 07:09:59;;;;;;;21.88;15.32;;;21.90;62.50;;;;;;5076787;28;20097;-68
2021/07/20 07:12:26;;;;;;;20.17;14.85;;;22.00;62.30;;;;;;5082549;28;20234;-69
2021/07/20 07:14:53;;;;;;;21.15;14.98;;;22.10;62.40;;;;;;5077143;28;20028;-68
2021/07/20 07:17:19;;;;;;;20.98;14.70;;;22.10;62.00;;;;;;5080109;28;20119;-69
2021/07/20 07:19:48;;;;;;;22.20;15.13;;;22.30;61.90;;;;;;5078115;28;20040;-70
2021/07/20 07:22:17;;;;;;;20.35;14.15;;;22.30;61.30;;;;;;5079363;28;20043;-71
2021/07/20 07:24:44;;;;;;;21.67;15.50;;;22.40;62.60;;;;;;5079731;28;20091;-70
2021/07/20 07:27:12;;;;;;;21.75;16.13;;;22.60;61.80;;;;;;5077843;28;20033;-71
2021/07/20 07:29:39;;;;;;;23.15;15.68;;;22.60;61.10;;;;;;5077412;28;20479;-70
2021/07/20 07:32:05;;;;;;;19.42;15.13;;;22.80;61.20;;;;;;5077404;28;20057;-69
2021/07/20 07:34:31;;;;;;;22.45;16.65;;;22.90;61.00;;;;;;5078990;28;20032;-67
2021/07/20 07:36:59;;;;;;;20.88;15.00;;;23.00;59.80;;;;;;5076846;28;20126;-67
2021/07/20 07:39:26;;;;;;;22.65;15.45;;;23.10;60.40;;;;;;5070352;28;20054;-67
2021/07/20 07:41:53;;;;;;;22.58;15.80;;;23.30;59.90;;;;;;5076856;28;20032;-68
2021/07/20 07:44:20;;;;;;;22.77;15.45;;;23.50;58.60;;;;;;5074453;28;20120;-68
2021/07/20 07:46:49;;;;;;;21.20;15.73;;;23.40;59.40;;;;;;5080426;28;20111;-68
2021/07/20 07:49:16;;;;;;;19.90;14.68;;;23.30;60.10;;;;;;5078774;28;20040;-67
2021/07/20 07:51:45;;;;;;;22.45;15.93;;;23.50;59.20;;;;;;5077613;28;20074;-68
2021/07/20 07:54:12;;;;;;;22.65;15.80;;;23.50;59.40;;;;;;5077198;28;20456;-68
2021/07/20 07:56:39;;;;;;;21.20;16.27;;;23.60;58.50;;;;;;5096430;28;20037;-69
2021/07/20 07:59:05;;;;;;;20.73;15.10;;;23.60;58.50;;;;;;5081442;28;20344;-68
2021/07/20 08:01:32;;;;;;;21.58;15.73;;;23.70;58.80;;;;;;5075484;28;20032;-70
2021/07/20 08:03:59;;;;;;;23.38;16.30;;;23.80;59.40;;;;;;5071728;28;20037;-69
2021/07/20 08:06:28;;;;;;;23.42;16.52;;;24.10;58.10;;;;;;5076614;28;20040;-69
2021/07/20 08:08:59;;;;;;;23.15;16.30;;;24.10;57.50;;;;;;5076458;28;20045;-70
2021/07/20 08:11:25;;;;;;;21.63;16.70;;;24.20;57.70;;;;;;5078855;28;20040;-68
2021/07/20 08:13:53;;;;;;;22.77;15.57;;;24.10;57.50;;;;;;5082933;28;20047;-67
2021/07/20 08:16:21;;;;;;;22.65;15.32;;;24.30;57.20;;;;;;5079248;28;20044;-68
2021/07/20 08:18:47;;;;;;;21.10;15.15;;;24.50;57.50;;;;;;5083810;28;20033;-67
2021/07/20 08:21:14;;;;;;;20.35;14.98;;;24.70;56.40;;;;;;5080645;28;20036;-68
2021/07/20 08:23:40;;;;;;;19.80;15.15;;;24.80;56.10;;;;;;5071462;28;20045;-68
2021/07/20 08:26:12;;;;;;;24.60;16.10;;;24.80;56.90;;;;;;5073475;28;20033;-69
2021/07/20 08:29:01;;;;;;;22.42;15.93;;;25.00;55.00;;;;;;5075087;28;20047;-72
2021/07/20 08:31:32;;;;;;;22.13;16.58;;;25.30;55.40;;;;;;5078558;28;20059;-68
2021/07/20 08:34:02;;;;;;;22.00;15.65;;;25.40;54.30;;;;;;5078254;28;20036;-69
2021/07/20 08:36:28;;;;;;;20.52;16.25;;;25.50;54.10;;;;;;5082133;28;20067;-70
2021/07/20 08:38:57;;;;;;;23.92;17.33;;;25.30;54.80;;;;;;5071375;28;20463;-69
2021/07/20 08:41:59;;;;;;;20.05;15.95;;;24.70;55.70;;;;;;5077536;28;20056;-69
2021/07/20 08:44:36;;;;;;;21.85;15.00;;;25.00;57.40;;;;;;5074910;28;20044;-70
2021/07/20 08:47:14;;;;;;;23.67;16.77;;;25.10;55.20;;;;;;5077842;28;20040;-68
2021/07/20 08:50:04;;;;;;;23.40;16.38;;;25.20;55.20;;;;;;5076707;28;20069;-71
2021/07/20 08:52:39;;;;;;;21.58;16.67;;;25.40;54.90;;;;;;5077534;28;20040;-71
2021/07/20 08:55:20;;;;;;;24.33;16.52;;;25.40;54.70;;;;;;5074966;28;20135;-69
2021/07/20 08:58:04;;;;;;;22.83;16.58;;;24.80;56.20;;;;;;5074822;28;20033;-68
2021/07/20 09:00:36;;;;;;;;;;;24.60;56.60;;;;;;5079203;28;20071;-69
2021/07/20 09:03:23;;;;;;;25.50;18.45;;;24.70;56.90;;;;;;5076428;28;19916;-69
2021/07/20 09:06:03;;;;;;;27.45;18.38;;;24.70;57.10;;;;;;5077564;28;20047;-69
2021/07/20 09:08:40;;;;;;;23.02;17.52;;;24.90;56.30;;;;;;5077766;28;20483;-69
2021/07/20 09:11:38;;;;;;;22.90;16.67;;;25.10;55.30;;;;;;5078625;28;20032;-70
2021/07/20 09:14:29;;;;;;;25.10;19.05;;;25.40;56.00;;;;;;5079502;28;20089;-69
2021/07/20 09:17:23;;;;;;;27.13;17.73;;;25.50;54.90;;;;;;5075421;28;20067;-69
2021/07/20 09:20:09;;;;;;;23.70;18.17;;;25.60;55.30;;;;;;5080845;28;20050;-70
2021/07/20 09:22:47;;;;;;;23.63;18.13;;;26.20;55.30;;;;;;5072219;28;20486;-70
2021/07/20 09:25:42;;;;;;;23.63;17.70;;;26.40;52.70;;;;;;5080197;28;20489;-70
2021/07/20 09:28:22;;;;;;;;;;;25.90;54.00;;;;;;5079407;28;20052;-69
2021/07/20 09:30:51;;;;;;;24.98;19.55;;;26.10;54.00;;;;;;5076407;28;19927;-70
2021/07/20 09:33:41;;;;;;;22.50;17.70;;;25.70;52.90;;;;;;5074779;28;20116;-71
2021/07/20 09:36:28;;;;;;;25.42;20.05;;;25.80;54.60;;;;;;5077558;28;20562;-69
2021/07/20 09:38:58;;;;;;;23.05;18.77;;;26.20;53.10;;;;;;5078273;28;20058;-70
2021/07/20 09:41:39;;;;;;;22.88;18.48;;;26.60;51.50;;;;;;5075457;28;20113;-70
2021/07/20 09:44:59;;;;;;;24.83;18.90;;;26.60;52.40;;;;;;5075930;28;20132;-69
2021/07/20 09:47:35;;;;;;;23.40;16.98;;;26.10;52.30;;;;;;4990689;28;20037;-70
2021/07/20 09:50:07;;;;;;;24.00;18.25;;;26.30;53.50;;;;;;5064262;28;20029;-70
2021/07/20 09:52:42;;;;;;;22.08;18.30;;;26.70;52.20;;;;;;5079345;28;20036;-68
2021/07/20 09:55:32;;;;;;;24.45;17.38;;;27.30;51.20;;;;;;5073147;28;20364;-70
2021/07/20 09:58:35;;;;;;;24.20;18.42;;;27.40;50.50;;;;;;5079751;28;20058;-69
2021/07/20 10:01:01;;;;;;;23.70;18.00;;;27.30;50.30;;;;;;5077987;28;20028;-69
2021/07/20 10:04:05;;;;;;;24.75;20.40;;;27.40;51.80;;;;;;5076402;28;20055;-68
2021/07/20 10:07:12;;;;;;;23.17;18.70;;;27.30;50.20;;;;;;5081975;28;20035;-73
2021/07/20 10:10:02;;;;;;;25.70;17.17;;;27.20;51.50;;;;;;5064147;28;20279;-68
2021/07/20 10:12:35;;;;;;;25.27;18.33;;;27.20;54.10;;;;;;5073518;28;20037;-68
2021/07/20 10:15:06;;;;;;;20.80;16.13;;;26.80;53.30;;;;;;5082672;28;20043;-69
2021/07/20 10:17:54;;;;;;;22.10;16.77;;;27.30;52.10;;;;;;5076619;28;20380;-68
2021/07/20 10:20:43;;;;;;;21.95;16.77;;;27.50;50.90;;;;;;5075103;28;20115;-69
2021/07/20 10:23:34;;;;;;;23.98;18.00;;;27.70;50.30;;;;;;5075890;28;20058;-70
2021/07/20 10:26:16;;;;;;;24.52;18.35;;;26.90;51.40;;;;;;5080990;28;20048;-68
2021/07/20 10:29:05;;;;;;;22.75;17.00;;;26.10;53.00;;;;;;5074774;28;20383;-70
2021/07/20 10:31:45;;;;;;;20.10;14.85;;;26.20;54.10;;;;;;5075355;28;20403;-68
2021/07/20 10:34:18;;;;;;;22.42;16.00;;;26.80;52.00;;;;;;5075003;28;20463;-67
2021/07/20 10:37:19;;;;;;;20.48;14.80;;;27.50;50.50;;;;;;5083371;28;20033;-69
2021/07/20 10:39:56;;;;;;;19.75;14.70;;;28.00;50.30;;;;;;5075372;28;20455;-68
2021/07/20 10:42:36;;;;;;;20.77;13.85;;;28.20;49.50;;;;;;5078290;28;20371;-68
2021/07/20 10:45:08;;;;;;;19.52;13.48;;;28.30;47.90;;;;;;5074406;28;20162;-70
2021/07/20 10:47:40;;;;;;;17.88;13.02;;;28.20;48.80;;;;;;5077845;28;20123;-69
2021/07/20 10:50:27;;;;;;;19.60;13.30;;;28.00;47.30;;;;;;5081364;28;20036;-70
2021/07/20 10:53:34;;;;;;;20.88;13.75;;;28.20;48.40;;;;;;5067028;28;20035;-71
2021/07/20 10:56:03;;;;;;;22.10;14.93;;;28.60;48.50;;;;;;5009024;28;20065;-69
2021/07/20 10:58:43;;;;;;;18.00;13.57;;;28.70;47.20;;;;;;5078576;28;20119;-74
2021/07/20 11:01:17;;;;;;;20.95;14.68;;;27.80;48.90;;;;;;5074613;28;20040;-70
2021/07/20 11:03:57;;;;;;;25.08;16.52;;;28.20;50.30;;;;;;5076218;28;20045;-69
2021/07/20 11:06:24;;;;;;;20.38;13.15;;;28.10;48.90;;;;;;5082103;28;20539;-68
2021/07/20 11:08:54;;;;;;;17.70;13.38;;;27.80;50.70;;;;;;5069529;28;20074;-69
2021/07/20 11:11:27;;;;;;;21.25;13.73;;;27.80;49.10;;;;;;5078701;28;20039;-69
2021/07/20 11:13:54;;;;;;;21.05;14.75;;;27.50;51.00;;;;;;5076085;28;20418;-70
2021/07/20 11:16:21;;;;;;;19.92;14.18;;;27.40;51.10;;;;;;5076032;28;20085;-69
2021/07/20 11:18:50;;;;;;;23.73;16.88;;;27.70;50.50;;;;;;5075813;28;20028;-72
2021/07/20 11:21:24;;;;;;;19.92;13.70;;;27.90;50.30;;;;;;5071296;28;20067;-68
2021/07/20 11:23:51;;;;;;;20.15;14.38;;;27.90;50.50;;;;;;5079073;28;20121;-69
2021/07/20 11:26:18;;;;;;;18.95;13.85;;;28.00;49.10;;;;;;5073914;28;20417;-68
2021/07/20 11:28:45;;;;;;;21.02;13.60;;;28.00;49.00;;;;;;5078549;28;20169;-68
2021/07/20 11:31:36;;;;;;;19.65;12.65;;;28.10;48.90;;;;;;5076599;28;20024;-68
2021/07/20 11:34:31;;;;;;;17.95;12.73;;;28.40;49.10;;;;;;5066000;28;20375;-68
2021/07/20 11:37:03;;;;;;;19.27;12.55;;;28.60;47.80;;;;;;5072756;28;20032;-69
2021/07/20 11:39:35;;;;;;;16.60;11.38;;;28.50;48.30;;;;;;5072226;28;20055;-69
2021/07/20 11:42:18;;;;;;;17.73;13.70;;;28.70;48.50;;;;;;5073881;28;20051;-72
2021/07/20 11:44:51;;;;;;;17.67;13.03;;;29.00;46.50;;;;;;5071348;28;20101;-68
2021/07/20 11:47:29;;;;;;;16.67;11.27;;;29.00;47.00;;;;;;5070004;28;20140;-70
2021/07/20 11:50:07;;;;;;;19.27;12.88;;;29.20;48.50;;;;;;5082846;28;20119;-69
2021/07/20 11:53:08;;;;;;;20.15;13.05;;;29.50;46.90;;;;;;5077497;28;20032;-68
2021/07/20 11:55:49;;;;;;;19.10;12.75;;;28.70;46.90;;;;;;5077622;28;20390;-69
2021/07/20 11:58:21;;;;;;;16.85;12.40;;;28.90;46.50;;;;;;5084063;28;20085;-68
2021/07/20 12:01:24;;;;;;;15.90;11.65;;;28.10;48.90;;;;;;5081050;28;20051;-68
2021/07/20 12:04:08;;;;;;;17.00;11.07;;;27.90;50.00;;;;;;5079147;28;20422;-69
2021/07/20 12:06:51;;;;;;;17.00;11.80;;;27.50;50.20;;;;;;5075977;28;20032;-69
2021/07/20 12:09:38;;;;;;;16.85;11.52;;;28.00;49.70;;;;;;5082106;28;20032;-69
2021/07/20 12:12:05;;;;;;;15.30;10.80;;;28.30;49.40;;;;;;5080928;28;20047;-69
2021/07/20 12:14:31;;;;;;;21.05;11.68;;;28.90;47.80;;;;;;5077503;28;20090;-71
2021/07/20 12:16:58;;;;;;;17.48;11.48;;;28.30;47.50;;;;;;5078239;28;20043;-70
2021/07/20 12:19:38;;;;;;;17.25;11.07;;;27.90;48.70;;;;;;5075093;28;20039;-68
2021/07/20 12:22:10;;;;;;;15.98;10.95;;;27.60;48.60;;;;;;5077115;28;20082;-69
2021/07/20 12:24:37;;;;;;;16.85;10.60;;;27.30;48.70;;;;;;5081608;28;20552;-68
2021/07/20 12:27:05;;;;;;;15.95;11.45;;;27.70;48.90;;;;;;5082370;28;20165;-71
2021/07/20 12:29:31;;;;;;;17.73;9.45;;;28.30;47.70;;;;;;5080848;28;20036;-70
2021/07/20 12:31:59;;;;;;;14.55;10.25;;;29.00;47.10;;;;;;5076838;28;20040;-72
2021/07/20 12:34:25;;;;;;;18.02;11.40;;;29.30;45.10;;;;;;5077403;28;20805;-68
2021/07/20 12:36:51;;;;;;;15.35;10.88;;;29.40;44.00;;;;;;5076821;28;20102;-69
2021/07/20 12:39:23;;;;;;;14.95;10.23;;;29.50;45.00;;;;;;5081900;28;20025;-69
2021/07/20 12:41:51;;;;;;;17.80;11.18;;;29.30;45.60;;;;;;5085832;28;20482;-69
2021/07/20 12:44:18;;;;;;;14.48;10.25;;;28.60;46.40;;;;;;5080472;28;20110;-68
2021/07/20 12:46:44;;;;;;;16.58;10.63;;;28.50;46.20;;;;;;5083660;28;20055;-68
2021/07/20 12:49:11;;;;;;;15.85;11.02;;;28.60;46.40;;;;;;5076810;28;20048;-69
2021/07/20 12:51:54;;;;;;;17.08;10.80;;;28.80;46.10;;;;;;5082169;28;20036;-68
2021/07/20 12:54:43;;;;;;;14.88;10.55;;;29.00;45.90;;;;;;5078527;28;20029;-68